DW9945 Daganzo de Arriba ES current weather conditions

sailwx.info

Wind from 172 at 4 knots gusting 8

Air temperature 17.8° C
Dewpoint 15.9° C

Last reported at 2019-Sep-22 01:05 UTC.
Time now 2019-Sep-22 02:14 UTC

Location: N 40°33' W 003°28'.
View on Google Maps.

See reports from other nearby stations

  
Tides and Currents Weather Stations Pressure Air Temp Water Temp Dewpoint Dewpoint Depression Visibility Wind Speed Wind Dir Waves Ship Positions
date/time (UTC)wind fromknots sea level pressurealtimeterstation pressurevisibilityair tempwater tempwave heightnotes
2019-Sep-22 01:05 172 4 gusting 8 17.8
2019-Sep-22 01:00 159 5 gusting 10 17.8
2019-Sep-22 00:55 164 6 gusting 8 17.8
2019-Sep-22 00:50 155 4 gusting 8 17.8
2019-Sep-22 00:45 163 5 gusting 7 17.8
2019-Sep-22 00:40 175 1 gusting 4 17.2
2019-Sep-22 00:35 171 1 gusting 4 17.2
2019-Sep-22 00:30 171 0 gusting 2 17.2
2019-Sep-22 00:25 171 2 gusting 4 17.2
2019-Sep-22 00:20 171 2 gusting 4 17.2
2019-Sep-22 00:15 171 0 gusting 1 17.2
2019-Sep-22 00:10 171 0 gusting 1 17.2
2019-Sep-22 00:05 171 0 gusting 5 17.2
2019-Sep-22 00:00 167 1 gusting 4 17.2
2019-Sep-21 23:55 154 1 gusting 2 17.2
2019-Sep-21 23:50 154 0 gusting 1 17.2
2019-Sep-21 23:45 154 0 gusting 2 17.2
2019-Sep-21 23:40 154 1 gusting 2 17.2
2019-Sep-21 23:35 154 0 gusting 2 17.2
2019-Sep-21 23:30 154 1 gusting 2 17.2
2019-Sep-21 23:25 263 17.2
2019-Sep-21 23:20 264 0 gusting 2 17.2
2019-Sep-21 23:15 265 0 gusting 2 17.2
2019-Sep-21 23:10 265 0 gusting 2 17.2
2019-Sep-21 23:05 266 0 gusting 1 17.2
2019-Sep-21 23:00 266 17.2
2019-Sep-21 22:55 266 0 gusting 1 17.2
2019-Sep-21 22:50 267 0 gusting 2 17.2
2019-Sep-21 22:45 268 1 gusting 2 17.2
2019-Sep-21 22:40 274 0 gusting 1 17.2
2019-Sep-21 22:35 274 0 gusting 1 17.2
2019-Sep-21 22:30 274 0 gusting 1 17.2
2019-Sep-21 22:25 274 0 gusting 1 17.2
2019-Sep-21 22:20 274 17.2
2019-Sep-21 22:15 274 17.2
2019-Sep-21 22:10 274 17.2
2019-Sep-21 22:05 274 0 gusting 1 17.2
2019-Sep-21 22:00 274 0 gusting 1 17.2
2019-Sep-21 21:55 274 0 gusting 1 17.2
2019-Sep-21 21:50 274 0 gusting 1 17.2
2019-Sep-21 21:45 274 17.2
2019-Sep-21 21:40 274 17.2
2019-Sep-21 21:35 274 0 gusting 1 17.2
2019-Sep-21 21:30 274 1 gusting 2 17.2
2019-Sep-21 21:25 274 1 gusting 2 17.2
2019-Sep-21 21:20 274 0 gusting 2 17.2
2019-Sep-21 21:15 274 1 gusting 2 17.2
2019-Sep-21 21:10 274 1 gusting 2 17.2
2019-Sep-21 21:05 274 1 gusting 2 17.2
2019-Sep-21 21:00 274 2 gusting 5 17.2
2019-Sep-21 20:55 278 3 gusting 6 17.2
2019-Sep-21 20:50 275 4 gusting 6 17.2
2019-Sep-21 20:45 266 7 gusting 11 17.2
2019-Sep-21 20:40 262 8 gusting 11 17.2
2019-Sep-21 20:35 266 7 gusting 10 17.2
2019-Sep-21 20:30 275 5 gusting 8 17.2
2019-Sep-21 20:25 282 5 gusting 7 17.2
2019-Sep-21 20:20 277 4 gusting 7 17.8
2019-Sep-21 20:15 285 6 gusting 8 17.8
2019-Sep-21 20:10 286 6 gusting 10 17.8
2019-Sep-21 20:05 287 6 gusting 10 17.8
2019-Sep-21 20:00 285 6 gusting 8 17.2
2019-Sep-21 19:55 286 6 gusting 7 17.2
2019-Sep-21 19:50 292 5 gusting 8 17.2
2019-Sep-21 19:45 287 5 gusting 7 17.2
2019-Sep-21 19:40 292 5 gusting 7 17.2
2019-Sep-21 19:35 292 4 gusting 7 17.2
2019-Sep-21 19:30 293 5 gusting 7 17.8
2019-Sep-21 19:25 297 6 gusting 7 17.8
2019-Sep-21 19:20 283 5 gusting 7 17.8
2019-Sep-21 19:15 283 3 gusting 6 17.8
2019-Sep-21 19:10 291 3 gusting 6 17.8
2019-Sep-21 19:05 311 2 gusting 4 17.8
2019-Sep-21 19:00 318 3 gusting 5 17.8
2019-Sep-21 18:55 314 2 gusting 5 17.8
2019-Sep-21 18:50 307 4 gusting 6 17.8
2019-Sep-21 18:45 301 3 gusting 6 17.8
2019-Sep-21 18:40 316 4 gusting 6 17.8
2019-Sep-21 18:35 316 2 gusting 5 17.8
2019-Sep-21 18:30 303 3 gusting 6 17.8
2019-Sep-21 18:25 306 2 gusting 6 17.8
2019-Sep-21 18:20 286 4 gusting 6 18.3
2019-Sep-21 18:15 289 5 gusting 6 18.3
2019-Sep-21 18:10 285 5 gusting 6 18.3
2019-Sep-21 18:05 286 4 gusting 6 18.3
2019-Sep-21 18:00 296 2 gusting 4 18.3
2019-Sep-21 17:55 302 2 gusting 6 18.9
2019-Sep-21 17:50 302 2 gusting 4 18.9
2019-Sep-21 17:45 271 2 gusting 5 18.9
2019-Sep-21 17:40 269 2 gusting 5 18.9
2019-Sep-21 17:35 260 2 gusting 5 18.9
2019-Sep-21 17:30 244 1 gusting 2 18.9
2019-Sep-21 17:25 244 1 gusting 2 18.9
2019-Sep-21 17:20 243 1 gusting 2 18.9
2019-Sep-21 17:15 243 1 gusting 2 18.9
2019-Sep-21 17:10 243 18.9
2019-Sep-21 17:05 243 1 gusting 2 18.9
2019-Sep-21 17:00 243 0 gusting 2 18.9
2019-Sep-21 16:55 243 1 gusting 4 18.9
2019-Sep-21 16:50 216 1 gusting 2 19.4
2019-Sep-21 16:45 214 0 gusting 2 19.4
2019-Sep-21 16:40 213 1 gusting 6 19.4
2019-Sep-21 16:35 204 4 gusting 6 19.4
2019-Sep-21 16:30 194 4 gusting 6 19.4
2019-Sep-21 16:25 199 4 gusting 6 19.4
2019-Sep-21 16:20 189 5 gusting 8 20.0
2019-Sep-21 16:15 196 5 gusting 8 20.0
2019-Sep-21 16:10 192 6 gusting 13 20.0
2019-Sep-21 16:05 164 8 gusting 13 20.6
2019-Sep-21 16:00 184 8 gusting 13 20.6
2019-Sep-21 15:55 172 5 gusting 6 20.6
2019-Sep-21 15:50 163 5 gusting 8 20.6
2019-Sep-21 15:45 143 4 gusting 7 20.6
2019-Sep-21 15:40 163 5 gusting 10 20.0
2019-Sep-21 15:35 163 5 gusting 7 20.6
2019-Sep-21 15:30 180 5 gusting 8 20.6
2019-Sep-21 15:25 158 4 gusting 6 20.6
2019-Sep-21 15:20 161 2 gusting 6 20.6
2019-Sep-21 15:15 172 4 gusting 6 20.6
2019-Sep-21 15:10 209 5 gusting 8 20.6
2019-Sep-21 15:05 164 6 gusting 10 20.6
2019-Sep-21 15:00 168 6 gusting 10 20.6
2019-Sep-21 14:55 169 5 gusting 7 20.6
2019-Sep-21 14:50 130 5 gusting 7 20.6
2019-Sep-21 14:45 156 4 gusting 7 20.6
2019-Sep-21 14:35 169 6 gusting 8 20.6
2019-Sep-21 14:30 165 1 gusting 6 20.6
2019-Sep-21 14:25 194 4 gusting 6 20.6
2019-Sep-21 14:20 164 4 gusting 6 20.0
2019-Sep-21 14:15 150 2 gusting 5 20.0
2019-Sep-21 14:10 162 5 gusting 7 20.0
2019-Sep-21 14:05 176 5 gusting 7 20.0
2019-Sep-21 14:00 214 4 gusting 6 20.0
2019-Sep-21 13:55 173 4 gusting 8 20.0
2019-Sep-21 13:50 159 4 gusting 7 20.0
2019-Sep-21 13:45 182 5 gusting 7 20.0
2019-Sep-21 13:40 190 3 gusting 6 20.0
2019-Sep-21 13:35 213 4 gusting 6 20.0
2019-Sep-21 13:30 166 4 gusting 6 20.0
2019-Sep-21 13:25 191 4 gusting 7 20.0
2019-Sep-21 13:20 211 6 gusting 6 20.0
2019-Sep-21 13:15 182 6 gusting 10 20.6
2019-Sep-21 13:10 210 6 gusting 10 20.6
2019-Sep-21 13:05 190 4 gusting 7 20.6
2019-Sep-21 13:00 206 3 gusting 7 20.6
2019-Sep-21 12:55 210 5 gusting 10 20.0
2019-Sep-21 12:50 181 6 gusting 11 20.6
2019-Sep-21 12:45 200 5 gusting 10 20.0
2019-Sep-21 12:40 166 4 gusting 10 20.0
2019-Sep-21 12:35 171 5 gusting 10 20.0
2019-Sep-21 12:30 197 5 gusting 10 20.0
2019-Sep-21 12:25 173 5 gusting 10 20.0
2019-Sep-21 12:20 193 5 gusting 7 20.0
2019-Sep-21 12:15 204 6 gusting 10 20.0
2019-Sep-21 12:10 216 5 gusting 10 20.0
2019-Sep-21 12:05 179 6 gusting 11 20.0
2019-Sep-21 12:00 179 5 gusting 10 20.0
2019-Sep-21 11:55 188 6 gusting 13 20.0
2019-Sep-21 11:50 192 6 gusting 11 20.0
2019-Sep-21 11:45 198 6 gusting 11 20.0
2019-Sep-21 11:40 178 6 gusting 11 20.0
2019-Sep-21 11:35 200 5 gusting 10 20.0
2019-Sep-21 11:30 189 6 gusting 13 20.0
2019-Sep-21 11:25 199 6 gusting 12 20.0
2019-Sep-21 11:20 200 6 gusting 11 20.0
2019-Sep-21 11:15 169 5 gusting 10 20.0
2019-Sep-21 11:10 169 5 gusting 8 20.0
2019-Sep-21 11:05 182 7 gusting 11 19.4
2019-Sep-21 11:00 182 6 gusting 10 20.0
2019-Sep-21 10:55 190 5 gusting 7 19.4
2019-Sep-21 10:50 159 3 gusting 6 19.4
2019-Sep-21 10:45 177 5 gusting 12 19.4
2019-Sep-21 10:40 174 5 gusting 10 19.4
2019-Sep-21 10:35 160 6 gusting 8 19.4
2019-Sep-21 10:30 195 6 gusting 10 19.4
2019-Sep-21 10:25 164 5 gusting 10 19.4
2019-Sep-21 10:20 190 6 gusting 10 19.4
2019-Sep-21 10:15 165 5 gusting 11 19.4
2019-Sep-21 10:10 163 8 gusting 13 19.4
2019-Sep-21 10:05 167 6 gusting 12 19.4
2019-Sep-21 10:00 170 5 gusting 10 19.4
2019-Sep-21 09:55 202 5 gusting 10 18.9
2019-Sep-21 09:50 196 6 gusting 12 18.9
2019-Sep-21 09:45 195 4 gusting 6 18.9
2019-Sep-21 09:40 196 7 gusting 10 18.9
2019-Sep-21 09:35 194 5 gusting 7 18.9
2019-Sep-21 09:30 201 6 gusting 8 18.9
2019-Sep-21 09:25 194 5 gusting 7 18.9
2019-Sep-21 09:20 181 5 gusting 7 18.9
2019-Sep-21 09:15 155 2 gusting 6 18.9
2019-Sep-21 09:10 175 5 gusting 8 18.9
2019-Sep-21 09:05 169 2 gusting 7 19.4
2019-Sep-21 09:00 201 2 gusting 5 18.3
2019-Sep-21 08:55 192 2 gusting 6 18.3
2019-Sep-21 08:50 178 3 gusting 6 18.3
2019-Sep-21 08:45 184 2 gusting 5 18.3
2019-Sep-21 08:40 163 2 gusting 5 18.3
2019-Sep-21 08:35 157 4 gusting 6 18.3
2019-Sep-21 08:30 183 1 gusting 2 18.3
2019-Sep-21 08:25 169 0 gusting 2 18.3
2019-Sep-21 08:20 138 2 gusting 2 18.3
2019-Sep-21 08:15 153 1 gusting 4 18.3
2019-Sep-21 08:10 154 1 gusting 4 17.8
2019-Sep-21 08:05 159 2 gusting 4 17.2
2019-Sep-21 08:00 146 3 gusting 6 17.8
2019-Sep-21 07:55 168 2 gusting 5 17.2
2019-Sep-21 07:50 171 2 gusting 5 17.2
2019-Sep-21 07:45 171 3 gusting 5 16.7
2019-Sep-21 07:40 176 4 gusting 6 16.7
2019-Sep-21 07:35 165 1 gusting 6 16.7
2019-Sep-21 07:30 169 4 gusting 6 16.7
2019-Sep-21 07:25 166 2 gusting 5 16.7
2019-Sep-21 07:20 189 2 gusting 2 16.7
2019-Sep-21 07:15 167 16.1
2019-Sep-21 07:10 167 1 gusting 2 16.1
2019-Sep-21 07:05 167 16.1
2019-Sep-21 07:00 167 16.1
2019-Sep-21 06:55 167 16.1
2019-Sep-21 06:50 167 16.1
2019-Sep-21 06:45 167 15.6
2019-Sep-21 06:40 167 15.6
2019-Sep-21 06:35 167 15.0
2019-Sep-21 06:30 167 15.0
2019-Sep-21 06:25 167 0 gusting 2 15.0
2019-Sep-21 06:20 167 0 gusting 0 15.6
2019-Sep-21 06:15 167 15.6
2019-Sep-21 06:10 167 1 gusting 2 15.6
2019-Sep-21 06:05 167 1 gusting 2 15.6
2019-Sep-21 06:00 167 0 gusting 2 15.6
2019-Sep-21 05:55 167 0 gusting 2 15.6
2019-Sep-21 05:50 167 0 gusting 2 15.6
2019-Sep-21 05:45 167 1 gusting 2 15.6
2019-Sep-21 05:40 167 2 gusting 2 15.6
2019-Sep-21 05:35 167 2 gusting 2 15.6
2019-Sep-21 05:30 167 2 gusting 5 15.6
2019-Sep-21 05:25 167 2 gusting 4 15.6
2019-Sep-21 05:20 167 1 gusting 4 15.6
2019-Sep-21 05:15 167 2 gusting 4 15.6
2019-Sep-21 05:10 167 1 gusting 2 15.6
2019-Sep-21 05:05 167 0 gusting 2 15.6
2019-Sep-21 05:00 167 1 gusting 2 16.1
2019-Sep-21 04:55 167 2 gusting 4 16.1
2019-Sep-21 04:50 167 1 gusting 4 16.1
2019-Sep-21 04:45 168 1 gusting 4 16.1
2019-Sep-21 04:40 169 1 gusting 2 16.1
2019-Sep-21 04:35 171 1 gusting 2 16.1
2019-Sep-21 04:30 171 0 gusting 2 16.1
2019-Sep-21 04:25 171 1 gusting 4 16.1
2019-Sep-21 04:20 170 2 gusting 4 16.1
2019-Sep-21 04:15 170 0 gusting 2 16.1
2019-Sep-21 04:10 170 1 gusting 2 16.1
2019-Sep-21 04:05 170 0 gusting 2 16.1
2019-Sep-21 04:00 170 1 gusting 2 16.7
2019-Sep-21 03:55 170 0 gusting 2 16.7
2019-Sep-21 03:50 170 1 gusting 2 16.7
2019-Sep-21 03:45 170 0 gusting 1 16.7
2019-Sep-21 03:40 172 1 gusting 2 16.7
2019-Sep-21 03:35 186 0 gusting 2 16.7
2019-Sep-21 03:30 186 0 gusting 1 16.7
2019-Sep-21 03:25 186 0 gusting 1 16.7
2019-Sep-21 03:20 186 0 gusting 1 16.7
2019-Sep-21 03:15 186 0 gusting 1 16.7
2019-Sep-21 03:10 186 0 gusting 0 17.2
2019-Sep-21 03:05 186 0 gusting 2 17.2
2019-Sep-21 03:00 186 1 gusting 2 17.2
2019-Sep-21 02:55 186 0 gusting 2 17.2
2019-Sep-21 02:50 186 0 gusting 2 17.2
2019-Sep-21 02:45 186 0 gusting 1 17.2
2019-Sep-21 02:40 186 0 gusting 4 17.2
2019-Sep-21 02:35 186 2 gusting 2 17.2
2019-Sep-21 02:30 161 2 gusting 6 17.2
2019-Sep-21 02:25 173 3 gusting 6 17.2
2019-Sep-21 02:20 166 2 gusting 5 17.2
2019-Sep-21 02:15 164 2 gusting 5 17.2
2019-Sep-21 02:10 158 2 gusting 5 17.2
2019-Sep-21 02:05 159 1 gusting 5 17.2
2019-Sep-21 02:00 153 2 gusting 5 17.2
2019-Sep-21 01:55 144 2 gusting 2 17.2
2019-Sep-21 01:50 115 1 gusting 2 17.2
2019-Sep-21 01:45 104 1 gusting 2 17.2
2019-Sep-21 01:40 101 0 gusting 2 17.2
2019-Sep-21 01:35 101 1 gusting 2 17.2
2019-Sep-21 01:30 086 1 gusting 2 17.2
2019-Sep-21 01:25 046 17.2
2019-Sep-21 01:20 046 0 gusting 2 17.2
2019-Sep-21 01:15 046 0 gusting 2 16.7
2019-Sep-21 01:10 046 0 gusting 2 16.7
2019-Sep-21 01:05 011 16.7
2019-Sep-21 01:00 011 0 gusting 2 16.7
2019-Sep-21 00:55 011 1 gusting 2 16.7
2019-Sep-21 00:50 011 1 gusting 2 16.7
2019-Sep-21 00:45 012 0 gusting 2 16.7
2019-Sep-21 00:40 011 1 gusting 2 16.7
2019-Sep-21 00:35 028 1 gusting 4 16.7
2019-Sep-21 00:30 339 2 gusting 2 16.7
2019-Sep-21 00:25 331 0 gusting 2 16.7
2019-Sep-21 00:20 331 0 gusting 2 16.7
2019-Sep-21 00:15 331 1 gusting 2 16.7
2019-Sep-21 00:10 329 0 gusting 1 16.7
2019-Sep-21 00:05 329 1 gusting 7 16.1
2019-Sep-21 00:00 277 9 gusting 13 16.7
2019-Sep-20 23:55 005 1 gusting 2 17.2
2019-Sep-20 23:50 056 0 gusting 2 17.2
2019-Sep-20 23:45 056 1 gusting 2 16.7
2019-Sep-20 23:40 072 0 gusting 2 16.7
2019-Sep-20 23:35 16.1
2019-Sep-20 23:30 16.1
2019-Sep-20 23:25 16.1
2019-Sep-20 23:20 16.1
2019-Sep-20 23:15 011 1 gusting 4 16.1
2019-Sep-20 23:10 008 3 gusting 7 16.1
2019-Sep-20 23:05 031 4 gusting 10 16.1
2019-Sep-20 22:55 038 7 gusting 10 16.1
2019-Sep-20 22:50 033 6 gusting 10 16.7
2019-Sep-20 22:45 035 6 gusting 10 16.7
2019-Sep-20 22:40 024 6 gusting 10 16.7
2019-Sep-20 22:35 004 4 gusting 8 16.7
2019-Sep-20 22:30 009 5 gusting 7 16.7
2019-Sep-20 22:25 010 3 gusting 7 16.7
2019-Sep-20 22:20 005 2 gusting 5 16.7
2019-Sep-20 22:15 010 4 gusting 6 16.7
2019-Sep-20 22:10 356 2 gusting 7 16.7
2019-Sep-20 22:05 346 3 gusting 6 16.7
2019-Sep-20 22:00 354 4 gusting 5 16.7
2019-Sep-20 21:55 023 3 gusting 6 16.7
2019-Sep-20 21:50 006 2 gusting 5 16.7
2019-Sep-20 21:45 003 2 gusting 4 16.7
2019-Sep-20 21:40 343 4 gusting 6 16.7
2019-Sep-20 21:35 327 1 gusting 2 16.7
2019-Sep-20 21:30 249 0 gusting 2 16.7
2019-Sep-20 21:25 249 17.2
2019-Sep-20 21:20 249 1 gusting 2 17.2
2019-Sep-20 21:15 249 1 gusting 2 16.7
2019-Sep-20 21:10 237 1 gusting 2 16.7
2019-Sep-20 21:05 237 0 gusting 1 16.7
2019-Sep-20 21:00 237 0 gusting 1 16.7
2019-Sep-20 20:55 237 0 gusting 1 16.7
2019-Sep-20 20:50 237 0 gusting 1 16.7
2019-Sep-20 20:45 237 0 gusting 1 16.7
2019-Sep-20 20:40 237 0 gusting 2 16.7
2019-Sep-20 20:35 237 0 gusting 1 16.7
2019-Sep-20 20:30 237 0 gusting 1 16.7
2019-Sep-20 20:25 237 1 gusting 2 16.7
2019-Sep-20 20:20 245 1 gusting 2 16.1
2019-Sep-20 20:15 244 3 gusting 6 16.7
2019-Sep-20 20:10 219 5 gusting 8 16.7
2019-Sep-20 20:05 218 5 gusting 7 16.7
2019-Sep-20 20:00 190 6 gusting 10 16.7
2019-Sep-20 19:55 200 10 gusting 15 17.2
2019-Sep-20 19:50 220 12 gusting 18 17.2
2019-Sep-20 19:45 231 10 gusting 24 17.8
2019-Sep-20 19:40 210 12 gusting 22 18.3
2019-Sep-20 19:35 195 13 gusting 22 20.6
2019-Sep-20 19:30 167 5 gusting 11 21.7
2019-Sep-20 19:25 148 10 gusting 17 22.2
2019-Sep-20 19:20 128 10 gusting 18 22.8
2019-Sep-20 19:15 143 4 gusting 10 22.8
2019-Sep-20 19:10 154 6 gusting 8 22.8
2019-Sep-20 19:05 161 4 gusting 8 22.8
2019-Sep-20 19:00 148 4 gusting 8 22.8
2019-Sep-20 18:55 150 4 gusting 12 22.8
2019-Sep-20 18:50 152 4 gusting 10 22.8
2019-Sep-20 18:45 147 7 gusting 12 22.8
2019-Sep-20 18:40 149 6 gusting 13 22.8
2019-Sep-20 18:35 140 5 gusting 10 22.8
2019-Sep-20 18:30 138 5 gusting 10 22.8
2019-Sep-20 18:25 146 6 gusting 11 23.3
2019-Sep-20 18:20 137 6 gusting 13 23.3
2019-Sep-20 18:15 137 7 gusting 13 23.3
2019-Sep-20 18:10 130 6 gusting 11 23.3
2019-Sep-20 18:05 140 6 gusting 11 23.3
2019-Sep-20 18:00 130 5 gusting 13 23.3
2019-Sep-20 17:55 139 7 gusting 11 23.3
2019-Sep-20 17:50 140 6 gusting 13 23.3
2019-Sep-20 17:45 149 6 gusting 13 23.9
2019-Sep-20 17:40 134 6 gusting 11 23.9
2019-Sep-20 17:35 153 6 gusting 10 23.9
2019-Sep-20 17:30 142 7 gusting 12 23.9
2019-Sep-20 17:25 141 7 gusting 13 23.9
2019-Sep-20 17:20 146 8 gusting 13 23.9
2019-Sep-20 17:15 142 8 gusting 13 23.9
2019-Sep-20 17:10 138 7 gusting 13 23.9
2019-Sep-20 17:05 137 9 gusting 14 23.9
2019-Sep-20 17:00 133 7 gusting 13 23.9
2019-Sep-20 16:55 124 8 gusting 13 23.9
2019-Sep-20 16:50 147 7 gusting 17 24.4
2019-Sep-20 16:45 125 7 gusting 13 24.4
2019-Sep-20 16:40 125 7 gusting 13 24.4
2019-Sep-20 16:35 127 8 gusting 14 24.4
2019-Sep-20 16:30 131 7 gusting 12 24.4
2019-Sep-20 16:25 151 7 gusting 12 24.4
2019-Sep-20 16:20 136 5 gusting 10 24.4
2019-Sep-20 16:15 143 8 gusting 14 24.4
2019-Sep-20 16:10 130 8 gusting 14 24.4
2019-Sep-20 16:05 148 7 gusting 13 24.4
2019-Sep-20 16:00 126 10 gusting 17 24.4
2019-Sep-20 15:55 139 6 gusting 13 24.4
2019-Sep-20 15:50 127 8 gusting 15 24.4
2019-Sep-20 15:45 130 6 gusting 11 24.4
2019-Sep-20 15:40 123 7 gusting 13 24.4
2019-Sep-20 15:35 148 5 gusting 11 24.4
2019-Sep-20 15:30 122 8 gusting 13 23.9
2019-Sep-20 15:25 136 8 gusting 14 24.4
2019-Sep-20 15:20 146 10 gusting 15 24.4
2019-Sep-20 15:15 121 5 gusting 10 24.4
2019-Sep-20 15:10 137 6 gusting 13 24.4
2019-Sep-20 15:05 122 6 gusting 13 24.4
2019-Sep-20 15:00 137 7 gusting 12 23.9
2019-Sep-20 14:55 120 6 gusting 10 23.9
2019-Sep-20 14:50 111 6 gusting 11 23.9
2019-Sep-20 14:45 125 4 gusting 8 23.9
2019-Sep-20 14:40 104 6 gusting 7 23.9
2019-Sep-20 14:35 130 4 gusting 6 23.3
2019-Sep-20 14:30 091 4 gusting 12 23.3
2019-Sep-20 14:25 154 6 gusting 11 23.3
2019-Sep-20 14:20 159 4 gusting 6 23.3
2019-Sep-20 14:15 131 6 gusting 11 23.3
2019-Sep-20 14:10 150 6 gusting 10 23.3
2019-Sep-20 14:05 120 6 gusting 10 23.3
2019-Sep-20 14:00 116 5 gusting 10 23.3
2019-Sep-20 13:55 094 7 gusting 10 23.3
2019-Sep-20 13:50 124 2 gusting 6 23.3
2019-Sep-20 13:45 137 6 gusting 10 23.3
2019-Sep-20 13:40 093 4 gusting 8 23.3
2019-Sep-20 13:35 126 5 gusting 10 23.3
2019-Sep-20 13:30 105 5 gusting 10 23.3
2019-Sep-20 13:25 129 6 gusting 11 23.3
2019-Sep-20 13:20 112 6 gusting 11 23.3
2019-Sep-20 13:15 127 4 gusting 10 23.3
2019-Sep-20 13:10 120 5 gusting 11 22.8
2019-Sep-20 13:05 120 4 gusting 10 23.3
2019-Sep-20 13:00 149 5 gusting 10 22.8
2019-Sep-20 12:55 102 5 gusting 10 22.8
2019-Sep-20 12:50 119 7 gusting 12 22.8
2019-Sep-20 12:45 136 6 gusting 8 22.8
2019-Sep-20 12:40 132 4 gusting 10 22.8
2019-Sep-20 12:35 157 5 gusting 12 22.8
2019-Sep-20 12:30 158 5 gusting 12 22.8
2019-Sep-20 12:25 151 4 gusting 7 22.8
2019-Sep-20 12:20 164 5 gusting 8 22.8
2019-Sep-20 12:15 152 5 gusting 10 22.8
2019-Sep-20 12:10 152 4 gusting 10 22.8
2019-Sep-20 12:05 154 6 gusting 10 22.8
2019-Sep-20 12:00 133 5 gusting 7 22.8
2019-Sep-20 11:55 128 5 gusting 8 22.8
2019-Sep-20 11:50 103 2 gusting 6 22.8
2019-Sep-20 11:45 141 2 gusting 6 22.8
2019-Sep-20 11:40 123 2 gusting 6 22.2
2019-Sep-20 11:35 128 3 gusting 10 22.2
2019-Sep-20 11:30 136 2 gusting 6 22.2
2019-Sep-20 11:25 125 5 gusting 6 22.2
2019-Sep-20 11:20 146 2 gusting 6 22.2
2019-Sep-20 11:15 139 2 gusting 6 22.2
2019-Sep-20 11:10 095 2 gusting 6 21.7
2019-Sep-20 11:05 150 2 gusting 6 21.7
2019-Sep-20 11:00 149 2 gusting 6 21.7
2019-Sep-20 10:55 146 4 gusting 7 21.7
2019-Sep-20 10:50 108 2 gusting 4 21.7
2019-Sep-20 10:45 145 1 gusting 2 21.7
2019-Sep-20 10:40 166 2 gusting 7 21.7
2019-Sep-20 10:35 145 1 gusting 4 21.7
2019-Sep-20 10:30 115 1 gusting 2 21.7
2019-Sep-20 10:25 113 3 gusting 6 21.7
2019-Sep-20 10:20 147 1 gusting 4 21.7
2019-Sep-20 10:15 123 1 gusting 5 21.1
2019-Sep-20 10:10 060 2 gusting 6 21.1
2019-Sep-20 10:05 090 2 gusting 5 21.1
2019-Sep-20 10:00 085 2 gusting 2 21.1
2019-Sep-20 09:55 039 2 gusting 5 21.1
2019-Sep-20 09:50 055 5 gusting 7 20.6
2019-Sep-20 09:45 058 2 gusting 6 21.1
2019-Sep-20 09:40 076 3 gusting 7 21.1
2019-Sep-20 09:35 059 2 gusting 4 21.1
2019-Sep-20 09:30 111 2 gusting 6 20.6
2019-Sep-20 09:25 092 5 gusting 7 20.6
2019-Sep-20 09:20 160 2 gusting 6 20.0
2019-Sep-20 09:15 068 4 gusting 7 20.0
2019-Sep-20 09:10 096 6 gusting 10 20.0
2019-Sep-20 09:05 138 2 gusting 6 20.0
2019-Sep-20 09:00 097 4 gusting 6 20.0
2019-Sep-20 08:55 130 5 gusting 7 20.0
2019-Sep-20 08:50 107 6 gusting 8 19.4
2019-Sep-20 08:45 100 6 gusting 8 19.4
2019-Sep-20 08:40 118 6 gusting 10 19.4
2019-Sep-20 08:35 150 2 gusting 6 18.9
2019-Sep-20 08:30 111 5 gusting 7 18.9
2019-Sep-20 08:25 123 4 gusting 7 18.9
2019-Sep-20 08:20 128 4 gusting 8 18.9
2019-Sep-20 08:15 124 5 gusting 7 18.9
2019-Sep-20 08:10 131 6 gusting 10 18.9
2019-Sep-20 08:05 095 4 gusting 8 19.4
2019-Sep-20 08:00 099 4 gusting 7 18.9
2019-Sep-20 07:55 107 3 gusting 10 18.9
2019-Sep-20 07:50 095 4 gusting 10 18.9
2019-Sep-20 07:45 108 2 gusting 6 19.4
2019-Sep-20 07:40 098 2 gusting 4 19.4
2019-Sep-20 07:35 113 2 gusting 4 18.9
2019-Sep-20 07:30 117 1 gusting 2 18.9
2019-Sep-20 07:25 049 1 gusting 2 18.9
2019-Sep-20 07:20 049 1 gusting 2 18.3
2019-Sep-20 07:15 045 0 gusting 2 17.8
2019-Sep-20 07:10 034 2 gusting 2 17.8
2019-Sep-20 07:05 046 0 gusting 2 17.8
2019-Sep-20 07:00 046 0 gusting 2 17.8
2019-Sep-20 06:55 046 1 gusting 4 17.2
2019-Sep-20 06:50 009 0 gusting 2 16.7
2019-Sep-20 06:45 005 1 gusting 2 16.7
2019-Sep-20 06:40 005 0 gusting 2 16.7
2019-Sep-20 06:35 005 0 gusting 2 16.7
2019-Sep-20 06:30 005 1 gusting 2 16.7
2019-Sep-20 06:25 005 1 gusting 2 16.7
2019-Sep-20 06:20 005 1 gusting 2 16.7
2019-Sep-20 06:15 005 1 gusting 2 16.7
2019-Sep-20 06:10 005 0 gusting 2 16.7
2019-Sep-20 06:05 011 1 gusting 4 16.7
2019-Sep-20 06:00 339 0 gusting 2 16.7
2019-Sep-20 05:55 339 1 gusting 2 16.7
2019-Sep-20 05:50 344 2 gusting 4 16.7
2019-Sep-20 05:45 338 1 gusting 4 16.7
2019-Sep-20 05:40 16.7
2019-Sep-20 05:35 16.7
2019-Sep-20 05:30 16.7
2019-Sep-20 05:25 339 4 gusting 5 16.7
2019-Sep-20 05:20 331 1 gusting 5 16.7
2019-Sep-20 05:15 17.2
2019-Sep-20 05:10 022 1 gusting 4 17.2
2019-Sep-20 05:05 020 1 gusting 4 17.2
2019-Sep-20 05:00 007 1 gusting 2 17.2
2019-Sep-20 04:55 005 1 gusting 2 17.2
2019-Sep-20 04:50 355 1 gusting 2 17.2
2019-Sep-20 04:45 010 0 gusting 4 17.2
2019-Sep-20 04:40 012 1 gusting 2 17.2
2019-Sep-20 04:35 005 2 gusting 4 17.2
2019-Sep-20 04:30 354 2 gusting 5 17.2
2019-Sep-20 04:25 345 2 gusting 4 17.8
2019-Sep-20 04:20 348 2 gusting 2 17.8
2019-Sep-20 04:15 011 1 gusting 4 17.8
2019-Sep-20 04:10 016 0 gusting 2 17.8
2019-Sep-20 04:05 015 1 gusting 2 17.8
2019-Sep-20 04:00 010 2 gusting 2 17.8
2019-Sep-20 03:55 17.8
2019-Sep-20 03:50 348 2 gusting 4 17.2
2019-Sep-20 03:45 17.2
2019-Sep-20 03:40 340 3 gusting 5 17.8
2019-Sep-20 03:35 349 4 gusting 6 17.8
2019-Sep-20 03:30 354 5 gusting 7 17.8
2019-Sep-20 03:25 358 4 gusting 6 17.8
2019-Sep-20 03:20 340 4 gusting 6 17.2
2019-Sep-20 03:15 344 1 gusting 5 17.2
2019-Sep-20 03:10 339 1 gusting 2 17.2
2019-Sep-20 03:05 339 1 gusting 2 17.2
2019-Sep-20 03:00 344 2 gusting 4 17.8
2019-Sep-20 02:55 347 3 gusting 6 17.8
2019-Sep-20 02:45 346 3 gusting 5 17.2
2019-Sep-20 02:40 339 2 gusting 4 17.2
2019-Sep-20 02:35 348 2 gusting 5 17.8
2019-Sep-20 02:30 009 3 gusting 6 17.8
2019-Sep-20 02:25 014 4 gusting 6 17.8
2019-Sep-20 02:20 007 2 gusting 2 17.8
2019-Sep-20 02:15 342 1 gusting 2 17.8
2019-Sep-20 02:10 010 0 gusting 4 18.3
2019-Sep-20 02:05 358 2 gusting 5 18.3
2019-Sep-20 02:00 358 2 gusting 4 17.8